Time;durP1;ratioP1;P1;durP2;ratioP2;P2;SDS_P1;SDS_P2;PMS_P1;PMS_P2;Temp;Humidity;BMP_temperature;BMP_pressure;BME280_temperature;BME280_humidity;BME280_pressure;Samples;Min_cycle;Max_cycle;Signal;HPM_P1;HPM_P2
2021/12/10 00:02:07;;;;;;;;;;;6.80;92.50;;;;;;5042917;28;20371;-62
2021/12/10 00:04:35;;;;;;;;;;;6.80;92.40;;;;;;5044789;28;19936;-63
2021/12/10 00:07:03;;;;;;;;;;;6.80;92.40;;;;;;5061339;28;20191;-61
2021/12/10 00:09:30;;;;;;;;;;;6.80;92.40;;;;;;5060928;28;19930;-60
2021/12/10 00:11:58;;;;;;;;;;;6.70;92.40;;;;;;5044559;28;20372;-61
2021/12/10 00:14:29;;;;;;;;;;;6.70;92.40;;;;;;5062634;28;19919;-60
2021/12/10 00:16:56;;;;;;;;;;;6.70;92.40;;;;;;5060517;28;19927;-60
2021/12/10 00:21:47;;;;;;;;;;;6.70;92.40;;;;;;5062335;28;19991;-60
2021/12/10 00:24:13;;;;;;;;;;;6.60;92.30;;;;;;5062670;28;19912;-60
2021/12/10 00:26:39;;;;;;;;;;;6.70;92.30;;;;;;5060582;28;19962;-60
2021/12/10 00:29:06;;;;;;;;;;;6.60;92.30;;;;;;5059971;28;19908;-61
2021/12/10 00:31:45;;;;;;;;;;;6.60;92.40;;;;;;5059903;28;19921;-61
2021/12/10 00:34:13;;;;;;;;;;;6.60;92.30;;;;;;5061507;28;19938;-60
2021/12/10 00:36:38;;;;;;;;;;;6.60;92.30;;;;;;5044460;28;20295;-60
2021/12/10 00:39:05;;;;;;;;;;;6.60;92.30;;;;;;5060666;28;19919;-60
2021/12/10 00:41:30;;;;;;;;;;;6.50;92.30;;;;;;5060272;28;20003;-60
2021/12/10 00:43:56;;;;;;;;;;;6.50;92.30;;;;;;5062895;28;20439;-60
2021/12/10 00:46:21;;;;;;;;;;;6.50;92.30;;;;;;5061500;28;19957;-60
2021/12/10 00:48:47;;;;;;;;;;;6.50;92.30;;;;;;5045848;28;20372;-61
2021/12/10 00:51:12;;;;;;;;;;;6.50;92.30;;;;;;5045043;28;19916;-60
2021/12/10 00:53:38;;;;;;;;;;;6.50;92.20;;;;;;5060669;28;19942;-60
2021/12/10 00:56:04;;;;;;;;;;;6.50;92.50;;;;;;5060476;28;19908;-60
2021/12/10 00:58:29;;;;;;;;;;;6.40;92.10;;;;;;5048780;28;19999;-60
2021/12/10 01:00:59;;;;;;;;;;;6.40;92.20;;;;;;5060551;28;20536;-60
2021/12/10 01:03:27;;;;;;;;;;;6.40;92.10;;;;;;5026951;28;20019;-61
2021/12/10 01:05:54;;;;;;;;;;;6.40;92.10;;;;;;5044007;28;19921;-60
2021/12/10 01:08:20;;;;;;;;;;;6.30;92.00;;;;;;5060143;28;19908;-60
2021/12/10 01:10:47;;;;;;;;;;;6.40;92.10;;;;;;5044534;28;19915;-60
2021/12/10 01:13:15;;;;;;;;;;;6.40;92.10;;;;;;5054803;28;21103;-60
2021/12/10 01:15:54;;;;;;;;;;;6.40;92.10;;;;;;5061735;28;19914;-60
2021/12/10 01:24:14;;;;;;;;;;;6.30;92.00;;;;;;5002365;28;19949;-60
2021/12/10 01:26:55;;;;;;;;;;;6.30;92.00;;;;;;5059734;28;19920;-61
2021/12/10 01:29:23;;;;;;;;;;;6.30;92.00;;;;;;5043740;28;20245;-60
2021/12/10 01:31:49;;;;;;;;;;;6.30;92.00;;;;;;5042168;28;19912;-60
2021/12/10 01:34:14;;;;;;;;;;;6.30;92.00;;;;;;5042053;28;20393;-60
2021/12/10 01:36:40;;;;;;;;;;;6.30;92.00;;;;;;5048793;28;19946;-60
2021/12/10 01:39:06;;;;;;;;;;;6.30;92.00;;;;;;5042533;28;19909;-60
2021/12/10 01:41:36;;;;;;;;;;;6.20;91.90;;;;;;5062437;28;19919;-61
2021/12/10 01:44:12;;;;;;;;;;;6.20;92.00;;;;;;5061012;28;19908;-60
2021/12/10 01:46:39;;;;;;;;;;;6.10;91.90;;;;;;5060139;28;19969;-61
2021/12/10 01:49:04;;;;;;;;;;;6.20;92.00;;;;;;5043434;28;20023;-60
2021/12/10 01:51:31;;;;;;;;;;;6.10;92.00;;;;;;5043603;28;19991;-60
2021/12/10 01:53:57;;;;;;;;;;;6.20;92.30;;;;;;5060756;28;19913;-60
2021/12/10 01:56:24;;;;;;;;;;;6.10;92.00;;;;;;5043559;28;19916;-60
2021/12/10 01:58:49;;;;;;;;;;;6.10;91.90;;;;;;5043056;28;19908;-60
2021/12/10 02:01:16;;;;;;;;;;;6.10;92.00;;;;;;5042421;28;20308;-60
2021/12/10 02:03:42;;;;;;;;;;;6.10;91.90;;;;;;5042722;28;19919;-60
2021/12/10 02:06:08;;;;;;;;;;;6.10;92.00;;;;;;5061053;28;20167;-60
2021/12/10 02:08:33;;;;;;;;;;;6.10;92.00;;;;;;5041543;28;20451;-60
2021/12/10 02:10:59;;;;;;;;;;;6.10;92.00;;;;;;5042547;28;19908;-60
2021/12/10 02:13:25;;;;;;;;;;;6.00;91.90;;;;;;5040507;28;19916;-60
2021/12/10 02:15:50;;;;;;;;;;;6.10;91.90;;;;;;5058266;28;19908;-60
2021/12/10 02:18:16;;;;;;;;;;;6.00;91.90;;;;;;5041135;28;19971;-60
2021/12/10 02:20:52;;;;;;;;;;;6.00;91.90;;;;;;5060280;28;20530;-60
2021/12/10 02:23:18;;;;;;;;;;;6.00;91.90;;;;;;5058541;28;19908;-60
2021/12/10 02:25:43;;;;;;;;;;;6.00;91.90;;;;;;5058651;28;20398;-60
2021/12/10 02:28:09;;;;;;;;;;;6.00;91.90;;;;;;5040409;28;19916;-60
2021/12/10 02:30:35;;;;;;;;;;;6.00;91.90;;;;;;5043416;28;20582;-60
2021/12/10 02:33:00;;;;;;;;;;;5.90;91.90;;;;;;5045840;28;19916;-60
2021/12/10 02:35:26;;;;;;;;;;;5.90;91.90;;;;;;5063780;28;19923;-60
2021/12/10 02:37:51;;;;;;;;;;;5.90;91.90;;;;;;5047013;28;19943;-60
2021/12/10 02:40:18;;;;;;;;;;;5.90;91.90;;;;;;5043695;28;19909;-60
2021/12/10 02:42:43;;;;;;;;;;;5.90;91.90;;;;;;5044177;28;20345;-60
2021/12/10 02:45:09;;;;;;;;;;;5.90;92.00;;;;;;5060303;28;19931;-60
2021/12/10 02:47:35;;;;;;;;;;;5.90;91.90;;;;;;5045955;28;20503;-60
2021/12/10 02:50:00;;;;;;;;;;;5.80;92.00;;;;;;5042810;28;19912;-60
2021/12/10 02:52:27;;;;;;;;;;;5.80;92.00;;;;;;5059388;28;20429;-60
2021/12/10 02:54:52;;;;;;;;;;;5.90;92.00;;;;;;5061303;28;19916;-60
2021/12/10 02:57:18;;;;;;;;;;;5.80;92.00;;;;;;5043131;28;19990;-61
2021/12/10 02:59:43;;;;;;;;;;;5.80;91.90;;;;;;5062055;28;20316;-60
2021/12/10 03:02:12;;;;;;;;;;;5.80;91.90;;;;;;5046049;28;19915;-61
2021/12/10 03:04:38;;;;;;;;;;;5.80;91.90;;;;;;5062439;28;20430;-61
2021/12/10 03:07:07;;;;;;;;;;;5.80;91.90;;;;;;5043952;28;20007;-60
2021/12/10 03:09:33;;;;;;;;;;;5.80;91.90;;;;;;5060056;28;19922;-60
2021/12/10 03:12:00;;;;;;;;;;;5.80;92.00;;;;;;5045239;28;20326;-60
2021/12/10 03:14:29;;;;;;;;;;;5.80;92.00;;;;;;5045782;28;19912;-60
2021/12/10 03:16:55;;;;;;;;;;;5.80;92.00;;;;;;5046184;28;20372;-60
2021/12/10 03:19:21;;;;;;;;;;;5.60;91.90;;;;;;5043455;28;19962;-61
2021/12/10 03:21:46;;;;;;;;;;;5.70;91.90;;;;;;5059856;28;19955;-60
2021/12/10 03:24:13;;;;;;;;;;;5.70;92.00;;;;;;5045549;28;19918;-61
2021/12/10 03:26:38;;;;;;;;;;;5.70;91.90;;;;;;5061524;28;20397;-61
2021/12/10 03:29:04;;;;;;;;;;;5.80;92.00;;;;;;5062434;28;19916;-61
2021/12/10 03:31:29;;;;;;;;;;;5.70;92.00;;;;;;5049551;28;20323;-60
2021/12/10 03:33:55;;;;;;;;;;;5.70;91.90;;;;;;5046005;28;19946;-61
2021/12/10 03:36:21;;;;;;;;;;;5.70;92.00;;;;;;5044510;28;19943;-60
2021/12/10 03:38:46;;;;;;;;;;;5.60;91.90;;;;;;5062409;28;19919;-60
2021/12/10 03:41:12;;;;;;;;;;;5.70;92.00;;;;;;5043791;28;19916;-60
2021/12/10 03:43:37;;;;;;;;;;;5.60;92.00;;;;;;5044586;28;19904;-60
2021/12/10 03:46:03;;;;;;;;;;;5.60;92.00;;;;;;5060638;28;20011;-60
2021/12/10 03:48:30;;;;;;;;;;;5.60;92.00;;;;;;5059686;28;19913;-60
2021/12/10 03:50:55;;;;;;;;;;;5.60;92.00;;;;;;5060665;28;19908;-60
2021/12/10 03:53:21;;;;;;;;;;;5.60;92.10;;;;;;5063241;28;20372;-61
2021/12/10 03:55:47;;;;;;;;;;;5.60;92.00;;;;;;5059968;28;19908;-60
2021/12/10 03:58:12;;;;;;;;;;;5.60;92.10;;;;;;5062148;28;19913;-60
2021/12/10 04:00:40;;;;;;;;;;;5.60;92.10;;;;;;5060764;28;20356;-60
2021/12/10 04:03:06;;;;;;;;;;;5.60;92.10;;;;;;5045003;28;20305;-60
2021/12/10 04:05:31;;;;;;;;;;;5.50;92.10;;;;;;5046531;28;19951;-60
2021/12/10 04:07:57;;;;;;;;;;;5.50;92.10;;;;;;5060801;28;20387;-60
2021/12/10 04:10:22;;;;;;;;;;;5.50;92.10;;;;;;5061659;28;19983;-60
2021/12/10 04:12:48;;;;;;;;;;;5.50;92.10;;;;;;5044022;28;20518;-61
2021/12/10 04:15:13;;;;;;;;;;;5.50;92.10;;;;;;5048477;28;19904;-61
2021/12/10 04:17:39;;;;;;;;;;;5.50;92.10;;;;;;5044426;28;19923;-60
2021/12/10 04:20:05;;;;;;;;;;;5.50;92.10;;;;;;5045744;28;20356;-61
2021/12/10 04:22:32;;;;;;;;;;;5.50;92.10;;;;;;5044033;28;20342;-60
2021/12/10 04:25:01;;;;;;;;;;;5.50;92.20;;;;;;5044426;28;19915;-60
2021/12/10 04:27:26;;;;;;;;;;;5.50;92.10;;;;;;5042613;28;19939;-60
2021/12/10 04:29:55;;;;;;;;;;;5.40;92.10;;;;;;5060576;28;19904;-60
2021/12/10 04:32:21;;;;;;;;;;;5.40;92.20;;;;;;5049314;28;19916;-60
2021/12/10 04:34:47;;;;;;;;;;;5.40;92.20;;;;;;5062846;28;19918;-60
2021/12/10 04:37:12;;;;;;;;;;;5.40;92.20;;;;;;5061306;28;20020;-60
2021/12/10 04:39:44;;;;;;;;;;;5.40;92.20;;;;;;5058439;28;19995;-60
2021/12/10 04:42:09;;;;;;;;;;;5.40;92.20;;;;;;5045099;28;19912;-60
2021/12/10 04:44:35;;;;;;;;;;;5.30;92.20;;;;;;5044690;28;20363;-60
2021/12/10 04:47:00;;;;;;;;;;;5.30;92.30;;;;;;5028028;28;19920;-60
2021/12/10 04:49:26;;;;;;;;;;;5.30;92.30;;;;;;5043949;28;19923;-60
2021/12/10 04:51:52;;;;;;;;;;;5.30;92.30;;;;;;5061392;28;20256;-60
2021/12/10 04:54:18;;;;;;;;;;;5.30;92.30;;;;;;5044336;28;19912;-61
2021/12/10 04:56:44;;;;;;;;;;;5.30;92.30;;;;;;5045190;28;19930;-60
2021/12/10 04:59:10;;;;;;;;;;;5.30;92.30;;;;;;5044763;28;20391;-60
2021/12/10 05:01:36;;;;;;;;;;;5.30;92.30;;;;;;5044424;28;19916;-60
2021/12/10 05:04:01;;;;;;;;;;;5.30;92.30;;;;;;5061288;28;19926;-60
2021/12/10 05:06:27;;;;;;;;;;;5.30;92.30;;;;;;5059226;28;19916;-60
2021/12/10 05:08:52;;;;;;;;;;;5.30;92.30;;;;;;5043997;28;19913;-60
2021/12/10 05:11:18;;;;;;;;;;;5.30;92.60;;;;;;5060136;28;19912;-61
2021/12/10 05:13:44;;;;;;;;;;;5.30;92.30;;;;;;5043739;28;20308;-60
2021/12/10 05:16:09;;;;;;;;;;;5.20;92.30;;;;;;5043477;28;20002;-61
2021/12/10 05:18:37;;;;;;;;;;;5.30;92.30;;;;;;5059961;28;19913;-61
2021/12/10 05:21:03;;;;;;;;;;;5.30;92.30;;;;;;5060411;28;20413;-61
2021/12/10 05:23:29;;;;;;;;;;;5.30;92.30;;;;;;5048654;28;20298;-60
2021/12/10 05:25:54;;;;;;;;;;;5.30;92.60;;;;;;5044426;28;19908;-61
2021/12/10 05:28:19;;;;;;;;;;;5.20;92.40;;;;;;5048578;28;19916;-60
2021/12/10 05:30:45;;;;;;;;;;;5.20;92.30;;;;;;5042915;28;20390;-61
2021/12/10 05:33:16;;;;;;;;;;;5.20;92.40;;;;;;5059163;28;20118;-61
2021/12/10 05:35:41;;;;;;;;;;;5.20;92.40;;;;;;5059135;28;19916;-61
2021/12/10 05:38:06;;;;;;;;;;;5.20;92.40;;;;;;5043850;28;19962;-60
2021/12/10 05:40:32;;;;;;;;;;;5.20;92.40;;;;;;5044539;28;19913;-61
2021/12/10 05:42:57;;;;;;;;;;;5.20;92.40;;;;;;5055615;28;19908;-61
2021/12/10 05:45:23;;;;;;;;;;;5.20;92.40;;;;;;5043232;28;20367;-61
2021/12/10 05:47:48;;;;;;;;;;;5.20;92.40;;;;;;5043275;28;19988;-60
2021/12/10 05:50:15;;;;;;;;;;;5.10;92.30;;;;;;5028486;28;19905;-60
2021/12/10 05:52:40;;;;;;;;;;;5.20;92.30;;;;;;5044845;28;19927;-60
2021/12/10 05:55:06;;;;;;;;;;;5.20;92.40;;;;;;5056271;28;19904;-60
2021/12/10 05:57:31;;;;;;;;;;;5.20;92.40;;;;;;5052908;28;20009;-61
2021/12/10 05:59:56;;;;;;;;;;;5.20;92.40;;;;;;5043627;28;19920;-61
2021/12/10 06:02:22;;;;;;;;;;;5.10;92.50;;;;;;5043944;28;19905;-60
2021/12/10 06:04:48;;;;;;;;;;;5.10;92.60;;;;;;5042298;28;19924;-60
2021/12/10 06:07:13;;;;;;;;;;;5.10;92.60;;;;;;5044893;28;19917;-60
2021/12/10 06:09:38;;;;;;;;;;;5.20;92.60;;;;;;5043587;28;19916;-61
2021/12/10 06:12:04;;;;;;;;;;;5.20;92.60;;;;;;5059003;28;20189;-61
2021/12/10 06:14:30;;;;;;;;;;;5.10;92.60;;;;;;5043381;28;19923;-61
2021/12/10 06:16:55;;;;;;;;;;;5.10;92.60;;;;;;5048738;28;20352;-61
2021/12/10 06:19:21;;;;;;;;;;;5.10;92.60;;;;;;5059902;28;19973;-60
2021/12/10 06:21:46;;;;;;;;;;;5.10;92.60;;;;;;5059304;28;21018;-61
2021/12/10 06:24:12;;;;;;;;;;;5.20;92.60;;;;;;5037060;28;19925;-61
2021/12/10 06:26:37;;;;;;;;;;;5.10;92.60;;;;;;5058201;28;19963;-61
2021/12/10 06:29:03;;;;;;;;;;;5.20;92.70;;;;;;5059608;28;20304;-60
2021/12/10 06:31:29;;;;;;;;;;;5.10;92.70;;;;;;5060917;28;19913;-61
2021/12/10 06:33:55;;;;;;;;;;;5.10;92.80;;;;;;5044097;28;19924;-60
2021/12/10 06:36:20;;;;;;;;;;;5.20;92.90;;;;;;5059142;28;19932;-60
2021/12/10 06:38:46;;;;;;;;;;;5.10;92.80;;;;;;5040867;28;19950;-61
2021/12/10 06:41:11;;;;;;;;;;;5.10;92.90;;;;;;5035838;28;19919;-60
2021/12/10 06:43:37;;;;;;;;;;;5.10;92.90;;;;;;5042072;28;19904;-61
2021/12/10 06:46:04;;;;;;;;;;;5.10;92.90;;;;;;5046972;28;19923;-60
2021/12/10 06:48:30;;;;;;;;;;;5.10;92.80;;;;;;5060176;28;19909;-61
2021/12/10 06:50:56;;;;;;;;;;;5.10;92.90;;;;;;5042807;28;19911;-61
2021/12/10 06:53:22;;;;;;;;;;;5.10;92.90;;;;;;5059774;28;20170;-60
2021/12/10 06:55:48;;;;;;;;;;;5.10;92.90;;;;;;5059172;28;20268;-61
2021/12/10 06:58:13;;;;;;;;;;;5.10;92.90;;;;;;5036481;28;19915;-60
2021/12/10 07:00:41;;;;;;;;;;;5.10;92.90;;;;;;5042835;28;19951;-61
2021/12/10 07:03:08;;;;;;;;;;;5.20;92.90;;;;;;5041091;28;19962;-60
2021/12/10 07:05:33;;;;;;;;;;;5.10;92.90;;;;;;5058226;28;20043;-61
2021/12/10 07:07:59;;;;;;;;;;;5.10;92.90;;;;;;5044126;28;19921;-60
2021/12/10 07:10:24;;;;;;;;;;;5.10;92.90;;;;;;5059091;28;19939;-60
2021/12/10 07:12:51;;;;;;;;;;;5.10;93.00;;;;;;5041604;28;20003;-61
2021/12/10 07:15:17;;;;;;;;;;;5.10;93.00;;;;;;5058855;28;19916;-61
2021/12/10 07:17:43;;;;;;;;;;;5.10;93.00;;;;;;5033971;28;19913;-61
2021/12/10 07:20:09;;;;;;;;;;;5.10;92.90;;;;;;5048099;28;19917;-60
2021/12/10 07:22:34;;;;;;;;;;;5.10;93.00;;;;;;5020726;28;20272;-60
2021/12/10 07:25:00;;;;;;;;;;;5.10;93.00;;;;;;5041604;28;19923;-60
2021/12/10 07:27:25;;;;;;;;;;;5.10;93.00;;;;;;5038696;28;20062;-60
2021/12/10 07:29:51;;;;;;;;;;;5.10;93.00;;;;;;5058820;28;19936;-61
2021/12/10 07:32:16;;;;;;;;;;;5.00;93.00;;;;;;5042087;28;19911;-61
2021/12/10 07:34:42;;;;;;;;;;;5.10;92.90;;;;;;5043249;28;20384;-60
2021/12/10 07:37:09;;;;;;;;;;;5.10;92.90;;;;;;5042015;28;19920;-61
2021/12/10 07:39:35;;;;;;;;;;;5.10;92.80;;;;;;5058427;28;19924;-61
2021/12/10 07:42:00;;;;;;;;;;;5.10;92.80;;;;;;5041346;28;19912;-61
2021/12/10 07:44:26;;;;;;;;;;;5.10;92.80;;;;;;5058730;28;19912;-61
2021/12/10 07:46:52;;;;;;;;;;;5.10;92.80;;;;;;5042174;28;20003;-61
2021/12/10 07:49:23;;;;;;;;;;;5.10;92.80;;;;;;5058265;28;19913;-61
2021/12/10 07:51:50;;;;;;;;;;;5.10;92.80;;;;;;5057822;28;20287;-61
2021/12/10 07:54:15;;;;;;;;;;;5.10;92.80;;;;;;5057795;28;19927;-60
2021/12/10 07:56:41;;;;;;;;;;;5.10;92.80;;;;;;5040236;28;19904;-61
2021/12/10 07:59:06;;;;;;;;;;;5.10;92.70;;;;;;5057428;28;19909;-61
2021/12/10 08:01:32;;;;;;;;;;;5.00;92.80;;;;;;5041899;28;19927;-60
2021/12/10 08:03:58;;;;;;;;;;;5.10;92.80;;;;;;5057071;28;19920;-61
2021/12/10 08:06:24;;;;;;;;;;;5.10;92.90;;;;;;5040286;28;20179;-60
2021/12/10 08:08:50;;;;;;;;;;;5.10;93.00;;;;;;5039305;28;19905;-61
2021/12/10 08:11:15;;;;;;;;;;;5.10;92.90;;;;;;5057078;28;20069;-61
2021/12/10 08:13:41;;;;;;;;;;;5.10;92.90;;;;;;5042589;28;19957;-61
2021/12/10 08:16:06;;;;;;;;;;;5.10;92.90;;;;;;5059086;28;19954;-61
2021/12/10 08:18:32;;;;;;;;;;;5.10;93.20;;;;;;5058356;28;20012;-61
2021/12/10 08:20:58;;;;;;;;;;;5.10;92.90;;;;;;5040717;28;20275;-61
2021/12/10 08:23:23;;;;;;;;;;;5.10;92.80;;;;;;5040372;28;20052;-61
2021/12/10 08:25:49;;;;;;;;;;;5.10;92.80;;;;;;5057589;28;20281;-61
2021/12/10 08:28:14;;;;;;;;;;;5.10;92.80;;;;;;5056193;28;20743;-61
2021/12/10 08:30:40;;;;;;;;;;;5.10;92.70;;;;;;5018021;28;20364;-60
2021/12/10 08:33:11;;;;;;;;;;;5.10;92.70;;;;;;5040526;28;19962;-61
2021/12/10 08:35:37;;;;;;;;;;;5.10;92.70;;;;;;5018056;28;20031;-60
2021/12/10 08:38:02;;;;;;;;;;;5.10;92.70;;;;;;5040630;28;19992;-60
2021/12/10 08:40:29;;;;;;;;;;;5.10;92.70;;;;;;5042055;28;19913;-61
2021/12/10 08:42:55;;;;;;;;;;;5.10;92.70;;;;;;5040653;28;19919;-60
2021/12/10 08:45:20;;;;;;;;;;;5.10;92.70;;;;;;5034373;28;19917;-61
2021/12/10 08:47:46;;;;;;;;;;;5.10;92.70;;;;;;5033992;28;20019;-61
2021/12/10 08:50:12;;;;;;;;;;;5.10;92.70;;;;;;5036181;28;20058;-61
2021/12/10 08:52:37;;;;;;;;;;;5.10;92.70;;;;;;5035776;28;20088;-61
2021/12/10 08:55:03;;;;;;;;;;;5.10;92.70;;;;;;5009982;28;20050;-61
2021/12/10 08:57:30;;;;;;;;;;;5.20;92.60;;;;;;5039215;28;20364;-61
2021/12/10 08:59:56;;;;;;;;;;;5.20;92.60;;;;;;5035529;28;19913;-60
2021/12/10 09:02:21;;;;;;;;;;;5.20;92.70;;;;;;5033457;28;19967;-60
2021/12/10 09:04:46;;;;;;;;;;;5.20;92.60;;;;;;5038997;28;19913;-61
2021/12/10 09:07:13;;;;;;;;;;;5.20;92.70;;;;;;5055785;28;19916;-61
2021/12/10 09:09:40;;;;;;;;;;;5.20;92.70;;;;;;5040115;28;20136;-61
2021/12/10 09:12:07;;;;;;;;;;;5.20;92.60;;;;;;5029741;28;19957;-61
2021/12/10 09:14:39;;;;;;;;;;;5.20;92.70;;;;;;5055889;28;19915;-61
2021/12/10 09:17:04;;;;;;;;;;;5.20;92.70;;;;;;5050875;28;19920;-61
2021/12/10 09:19:30;;;;;;;;;;;5.20;92.60;;;;;;5029758;28;19920;-61
2021/12/10 09:21:55;;;;;;;;;;;5.20;92.60;;;;;;5036335;28;19912;-62
2021/12/10 09:24:21;;;;;;;;;;;5.20;92.60;;;;;;5040630;28;19938;-61
2021/12/10 09:26:47;;;;;;;;;;;5.20;92.50;;;;;;5038141;28;20226;-61
2021/12/10 09:29:13;;;;;;;;;;;5.30;92.50;;;;;;5057664;28;20003;-61
2021/12/10 09:31:39;;;;;;;;;;;5.20;92.40;;;;;;5042076;28;19908;-61
2021/12/10 09:34:04;;;;;;;;;;;5.30;92.50;;;;;;5039197;28;19909;-61
2021/12/10 09:36:30;;;;;;;;;;;5.20;92.40;;;;;;5056304;28;20003;-61
2021/12/10 09:38:55;;;;;;;;;;;5.20;92.40;;;;;;5037023;28;19927;-61
2021/12/10 09:41:21;;;;;;;;;;;5.20;92.30;;;;;;5055757;28;19958;-61
2021/12/10 09:43:46;;;;;;;;;;;5.20;92.30;;;;;;5037223;28;19912;-62
2021/12/10 09:46:12;;;;;;;;;;;5.20;92.40;;;;;;5056729;28;19931;-61
2021/12/10 09:48:37;;;;;;;;;;;5.30;92.40;;;;;;5038773;28;19920;-61
2021/12/10 09:51:08;;;;;;;;;;;5.40;92.40;;;;;;5038986;28;19911;-61
2021/12/10 09:53:34;;;;;;;;;;;5.30;92.30;;;;;;5041756;28;20386;-61
2021/12/10 09:56:00;;;;;;;;;;;5.30;92.40;;;;;;5039666;28;19905;-61
2021/12/10 09:58:25;;;;;;;;;;;5.30;92.40;;;;;;5037877;28;19916;-61
2021/12/10 10:00:52;;;;;;;;;;;5.30;92.40;;;;;;5055363;28;19909;-61
2021/12/10 10:03:18;;;;;;;;;;;5.30;92.40;;;;;;5040298;28;19916;-61
2021/12/10 10:05:45;;;;;;;;;;;5.30;92.40;;;;;;5041584;28;20283;-62
2021/12/10 10:08:13;;;;;;;;;;;5.30;92.40;;;;;;5058846;28;19920;-61
2021/12/10 10:10:39;;;;;;;;;;;5.30;92.40;;;;;;5060610;28;19916;-61
2021/12/10 10:13:05;;;;;;;;;;;5.30;92.50;;;;;;5060874;28;20394;-61
2021/12/10 10:15:31;;;;;;;;;;;5.30;92.40;;;;;;5046842;28;19936;-61
2021/12/10 10:17:57;;;;;;;;;;;5.30;92.40;;;;;;5059994;28;19915;-61
2021/12/10 10:20:23;;;;;;;;;;;5.30;92.40;;;;;;5057374;28;19936;-61
2021/12/10 10:22:48;;;;;;;;;;;5.30;92.50;;;;;;5038833;28;19971;-61
2021/12/10 10:25:14;;;;;;;;;;;5.30;92.50;;;;;;5054080;28;19909;-61
2021/12/10 10:27:40;;;;;;;;;;;5.30;92.50;;;;;;5057437;28;19961;-61
2021/12/10 10:30:11;;;;;;;;;;;5.30;92.50;;;;;;5041580;28;19916;-61
2021/12/10 10:32:37;;;;;;;;;;;5.30;92.40;;;;;;5059387;28;19912;-61
2021/12/10 10:35:07;;;;;;;;;;;5.30;92.50;;;;;;5058274;28;19914;-61
2021/12/10 10:37:32;;;;;;;;;;;5.30;92.40;;;;;;5042321;28;19908;-61
2021/12/10 10:39:58;;;;;;;;;;;5.30;92.50;;;;;;5061414;28;20035;-62
2021/12/10 10:42:25;;;;;;;;;;;5.30;92.50;;;;;;5051646;28;20259;-61
2021/12/10 10:44:51;;;;;;;;;;;5.30;92.50;;;;;;5016340;28;20011;-61
2021/12/10 10:47:20;;;;;;;;;;;5.30;92.50;;;;;;5042044;28;20102;-62
2021/12/10 10:49:46;;;;;;;;;;;5.30;92.50;;;;;;5044512;28;20546;-62
2021/12/10 10:52:11;;;;;;;;;;;5.30;92.40;;;;;;5051807;28;19936;-61
2021/12/10 10:54:37;;;;;;;;;;;5.30;92.40;;;;;;5062585;28;19920;-61
2021/12/10 11:00:14;;;;;;;;;;;5.30;92.50;;;;;;5052666;28;19993;-62
2021/12/10 11:02:41;;;;;;;;;;;5.30;92.50;;;;;;5041755;28;19961;-61
2021/12/10 11:05:10;;;;;;;;;;;5.30;92.50;;;;;;5039294;28;19923;-61
2021/12/10 11:07:37;;;;;;;;;;;5.30;92.40;;;;;;5047351;28;19931;-61
2021/12/10 11:10:04;;;;;;;;;;;5.30;92.40;;;;;;5063580;28;20014;-61
2021/12/10 11:12:34;;;;;;;;;;;5.40;92.50;;;;;;5046094;28;19920;-61
2021/12/10 11:15:00;;;;;;;;;;;5.30;92.40;;;;;;5030000;28;19923;-62
2021/12/10 11:17:27;;;;;;;;;;;5.30;92.70;;;;;;5046427;28;19916;-62
2021/12/10 11:20:01;;;;;;;;;;;5.40;92.50;;;;;;5062524;28;19915;-62
2021/12/10 11:22:27;;;;;;;;;;;5.30;92.50;;;;;;5061762;28;20602;-61
2021/12/10 11:24:55;;;;;;;;;;;5.40;92.60;;;;;;5049065;28;19909;-62
2021/12/10 11:27:23;;;;;;;;;;;5.30;92.60;;;;;;5056978;28;19966;-62
2021/12/10 11:29:51;;;;;;;;;;;5.40;92.60;;;;;;5020255;28;19912;-62
2021/12/10 11:32:17;;;;;;;;;;;5.30;92.60;;;;;;5054307;28;19913;-63
2021/12/10 11:34:43;;;;;;;;;;;5.30;92.70;;;;;;5042073;28;19913;-63
2021/12/10 11:37:09;;;;;;;;;;;5.40;92.90;;;;;;5039290;28;19916;-63
2021/12/10 11:39:42;;;;;;;;;;;5.40;92.90;;;;;;5058563;28;19955;-61
2021/12/10 11:45:33;;;;;;;;;;;5.40;92.90;;;;;;5040695;28;20107;-63
2021/12/10 11:48:11;;;;;;;;;;;5.40;92.90;;;;;;5027773;28;19912;-62
2021/12/10 11:50:44;;;;;;;;;;;5.40;92.90;;;;;;5030144;28;19912;-63
2021/12/10 11:53:11;;;;;;;;;;;5.40;92.90;;;;;;5046820;28;19908;-62
2021/12/10 11:55:37;;;;;;;;;;;5.40;92.90;;;;;;5051440;28;19924;-63
2021/12/10 11:58:03;;;;;;;;;;;5.40;92.90;;;;;;5043940;28;19992;-62
2021/12/10 12:00:31;;;;;;;;;;;5.40;93.00;;;;;;5063392;28;19974;-62
2021/12/10 12:02:58;;;;;;;;;;;5.40;93.10;;;;;;5032321;28;19957;-62
2021/12/10 12:05:25;;;;;;;;;;;5.40;93.10;;;;;;5032880;28;19928;-61
2021/12/10 12:07:51;;;;;;;;;;;5.40;93.10;;;;;;5053015;28;20011;-62
2021/12/10 12:10:26;;;;;;;;;;;5.40;93.20;;;;;;5047872;28;19928;-61
2021/12/10 12:12:52;;;;;;;;;;;5.40;93.20;;;;;;5050381;28;19943;-63
2021/12/10 12:15:33;;;;;;;;;;;5.50;93.30;;;;;;5042753;28;19927;-61
2021/12/10 12:18:22;;;;;;;;;;;5.40;93.40;;;;;;5038708;28;20001;-63
2021/12/10 12:20:48;;;;;;;;;;;5.50;93.40;;;;;;5028572;28;19935;-63
2021/12/10 12:26:03;;;;;;;;;;;5.50;93.40;;;;;;5043987;28;19924;-62
2021/12/10 12:28:29;;;;;;;;;;;5.50;93.50;;;;;;5026023;28;20383;-64
2021/12/10 12:31:12;;;;;;;;;;;5.50;93.50;;;;;;5040307;28;19927;-62
2021/12/10 12:33:57;;;;;;;;;;;5.50;93.40;;;;;;5021330;28;19908;-63
2021/12/10 12:36:24;;;;;;;;;;;5.50;93.70;;;;;;5035411;28;19928;-61
2021/12/10 12:38:49;;;;;;;;;;;5.50;93.90;;;;;;5032825;28;19921;-63
2021/12/10 12:41:20;;;;;;;;;;;5.50;93.90;;;;;;5020432;28;19927;-63
2021/12/10 12:43:47;;;;;;;;;;;5.50;93.90;;;;;;5035853;28;19908;-61
2021/12/10 12:46:12;;;;;;;;;;;5.50;93.90;;;;;;5023237;28;19916;-62
2021/12/10 12:48:52;;;;;;;;;;;5.50;93.90;;;;;;5020481;28;19925;-61
2021/12/10 12:51:20;;;;;;;;;;;5.50;93.70;;;;;;5038504;28;19917;-62
2021/12/10 12:53:45;;;;;;;;;;;5.50;93.70;;;;;;5032444;28;19931;-63
2021/12/10 12:56:11;;;;;;;;;;;5.50;93.80;;;;;;5032964;28;19908;-64
2021/12/10 12:58:44;;;;;;;;;;;5.60;93.90;;;;;;5022313;28;19908;-62
2021/12/10 13:01:31;;;;;;;;;;;5.60;94.00;;;;;;5018643;28;19927;-63
2021/12/10 13:03:58;;;;;;;;;;;5.60;94.10;;;;;;5038094;28;19916;-61
2021/12/10 13:06:29;;;;;;;;;;;5.60;94.10;;;;;;5022303;28;19920;-63
2021/12/10 13:09:00;;;;;;;;;;;5.60;94.00;;;;;;5037288;28;20060;-62
2021/12/10 13:11:31;;;;;;;;;;;5.60;94.10;;;;;;5036705;28;19917;-61
2021/12/10 13:14:02;;;;;;;;;;;5.60;94.20;;;;;;5021231;28;20374;-62
2021/12/10 13:16:38;;;;;;;;;;;5.60;94.20;;;;;;5046040;28;19916;-62
2021/12/10 13:19:04;;;;;;;;;;;5.60;94.20;;;;;;5027467;28;19921;-61
2021/12/10 13:21:30;;;;;;;;;;;5.60;94.20;;;;;;5023667;28;20019;-63
2021/12/10 13:23:55;;;;;;;;;;;5.60;94.40;;;;;;5015542;28;19908;-61
2021/12/10 13:26:21;;;;;;;;;;;5.60;94.40;;;;;;5034930;28;19978;-66
2021/12/10 13:28:46;;;;;;;;;;;5.60;94.40;;;;;;5025829;28;19931;-62
2021/12/10 13:31:13;;;;;;;;;;;5.60;94.40;;;;;;5030023;28;19927;-62
2021/12/10 13:33:39;;;;;;;;;;;5.60;94.20;;;;;;5008170;28;19908;-63
2021/12/10 13:36:06;;;;;;;;;;;5.60;94.20;;;;;;5038768;28;19913;-61
2021/12/10 13:38:33;;;;;;;;;;;5.60;94.30;;;;;;5039750;28;19932;-63
2021/12/10 13:40:58;;;;;;;;;;;5.60;94.30;;;;;;5038428;28;19956;-62
2021/12/10 13:43:24;;;;;;;;;;;5.60;94.30;;;;;;5022162;28;19959;-62
2021/12/10 13:45:53;;;;;;;;;;;5.70;94.30;;;;;;5042910;28;20336;-62
2021/12/10 13:48:18;;;;;;;;;;;5.70;94.40;;;;;;5026316;28;19974;-64
2021/12/10 13:50:45;;;;;;;;;;;5.70;94.50;;;;;;5024600;28;20742;-61
2021/12/10 13:53:12;;;;;;;;;;;5.70;94.40;;;;;;5041009;28;19913;-61
2021/12/10 13:55:41;;;;;;;;;;;5.70;94.40;;;;;;5023266;28;19912;-62
2021/12/10 13:58:26;;;;;;;;;;;5.70;94.40;;;;;;5031037;28;20209;-61
2021/12/10 14:01:14;;;;;;;;;;;5.70;94.30;;;;;;5040972;28;20011;-62
2021/12/10 14:04:00;;;;;;;;;;;5.70;94.20;;;;;;5050768;28;19920;-62
2021/12/10 14:06:44;;;;;;;;;;;5.70;94.30;;;;;;5042204;28;19909;-62
2021/12/10 14:09:10;;;;;;;;;;;5.70;94.50;;;;;;5058529;28;20342;-60
2021/12/10 14:11:55;;;;;;;;;;;5.70;94.70;;;;;;5047592;28;20742;-61
2021/12/10 14:14:28;;;;;;;;;;;5.60;94.60;;;;;;5046057;28;19919;-61
2021/12/10 14:16:54;;;;;;;;;;;5.70;94.70;;;;;;5053685;28;19913;-61
2021/12/10 14:19:29;;;;;;;;;;;5.70;94.70;;;;;;5059952;28;19916;-61
2021/12/10 14:21:55;;;;;;;;;;;5.70;94.70;;;;;;5054907;28;19920;-61
2021/12/10 14:24:42;;;;;;;;;;;5.80;94.90;;;;;;5043206;28;19912;-61
2021/12/10 14:27:10;;;;;;;;;;;5.70;94.90;;;;;;5042946;28;19935;-61
2021/12/10 14:29:36;;;;;;;;;;;5.70;95.00;;;;;;5059132;28;20026;-61
2021/12/10 14:32:02;;;;;;;;;;;5.70;95.10;;;;;;5036297;28;19926;-61
2021/12/10 14:34:27;;;;;;;;;;;5.80;95.40;;;;;;5056152;28;19916;-61
2021/12/10 14:36:58;;;;;;;;;;;5.80;95.50;;;;;;5060861;28;20030;-61
2021/12/10 14:39:23;;;;;;;;;;;5.80;95.30;;;;;;5062885;28;20545;-61
2021/12/10 14:41:49;;;;;;;;;;;5.80;95.20;;;;;;5059558;28;20006;-61
2021/12/10 14:44:17;;;;;;;;;;;5.80;95.40;;;;;;5060962;28;19951;-61
2021/12/10 14:46:43;;;;;;;;;;;5.80;95.50;;;;;;5055081;28;19920;-61
2021/12/10 14:49:20;;;;;;;;;;;5.80;95.20;;;;;;5043161;28;19966;-61